Time;durP1;ratioP1;P1;durP2;ratioP2;P2;SDS_P1;SDS_P2;PMS_P1;PMS_P2;Temp;Humidity;BMP_temperature;BMP_pressure;BME280_temperature;BME280_humidity;BME280_pressure;Samples;Min_cycle;Max_cycle;Signal;HPM_P1;HPM_P2
2021/07/18 00:00:16;;;;;;;9.00;4.30;;;;;;;24.02;59.14;100240.19;5033651;28;20049;-65
2021/07/18 00:03:01;;;;;;;8.45;4.65;;;;;;;23.99;59.38;100235.47;5034015;28;20048;-64
2021/07/18 00:05:46;;;;;;;6.10;4.55;;;;;;;23.98;59.37;100233.88;5032370;28;20053;-64
2021/07/18 00:08:31;;;;;;;11.82;4.50;;;;;;;23.96;59.65;100227.97;5037808;28;20060;-64
2021/07/18 00:11:16;;;;;;;7.00;4.28;;;;;;;23.95;59.61;100231.94;5036011;28;20049;-66
2021/07/18 00:14:01;;;;;;;7.20;3.97;;;;;;;23.92;59.86;100227.25;5031611;28;20420;-65
2021/07/18 00:16:46;;;;;;;8.52;4.32;;;;;;;23.85;60.09;100225.34;5037808;28;20052;-64
2021/07/18 00:19:31;;;;;;;6.47;3.85;;;;;;;23.83;60.01;100224.94;5035844;28;20048;-65
2021/07/18 00:22:17;;;;;;;8.23;3.72;;;;;;;23.81;60.14;100225.38;5032593;28;20044;-65
2021/07/18 00:25:03;;;;;;;4.35;3.33;;;;;;;23.82;60.40;100221.38;5021472;28;20061;-65
2021/07/18 00:27:48;;;;;;;8.57;3.65;;;;;;;23.83;60.39;100211.84;5036351;28;20429;-65
2021/07/18 00:30:33;;;;;;;4.60;3.30;;;;;;;23.79;60.36;100224.22;5034210;28;20413;-65
2021/07/18 00:33:18;;;;;;;3.75;3.35;;;;;;;23.78;60.36;100215.09;5031669;28;20052;-64
2021/07/18 00:36:03;;;;;;;3.75;3.00;;;;;;;23.80;60.19;100223.81;5036084;28;20053;-65
2021/07/18 00:38:48;;;;;;;5.82;3.17;;;;;;;23.80;60.07;100218.25;5034310;28;20076;-65
2021/07/18 00:41:34;;;;;;;5.18;2.65;;;;;;;23.80;60.29;100218.25;5030195;28;20044;-65
2021/07/18 00:44:19;;;;;;;4.07;3.00;;;;;;;23.80;60.35;100207.16;5035984;28;20049;-65
2021/07/18 00:47:04;;;;;;;4.35;2.78;;;;;;;23.85;60.01;100215.00;5034131;28;20565;-65
2021/07/18 00:49:49;;;;;;;5.07;2.63;;;;;;;23.86;59.96;100211.03;5032482;28;20060;-65
2021/07/18 00:52:35;;;;;;;6.30;2.65;;;;;;;23.85;60.13;100209.47;5035528;28;20048;-65
2021/07/18 00:55:20;;;;;;;8.93;2.95;;;;;;;23.80;60.46;100211.91;5033323;28;20528;-65
2021/07/18 00:58:05;;;;;;;6.40;3.47;;;;;;;23.84;60.08;100212.66;5032203;28;20056;-66
2021/07/18 01:00:50;;;;;;;3.85;2.72;;;;;;;23.73;60.57;100214.78;5036192;28;20402;-66
2021/07/18 01:03:35;;;;;;;8.95;3.42;;;;;;;23.72;60.08;100213.22;5037381;28;20044;-65
2021/07/18 01:06:19;;;;;;;5.95;3.10;;;;;;;23.79;60.18;100221.44;5032686;28;20053;-65
2021/07/18 01:09:04;;;;;;;3.58;2.90;;;;;;;23.84;60.24;100213.44;5036415;28;20084;-65
2021/07/18 01:11:49;;;;;;;5.15;2.38;;;;;;;23.86;59.96;100211.03;5034499;28;20048;-64
2021/07/18 01:14:34;;;;;;;4.97;3.45;;;;;;;23.83;60.08;100206.31;5031713;28;20052;-65
2021/07/18 01:17:19;;;;;;;5.25;2.50;;;;;;;23.83;60.09;100200.75;5035667;28;20044;-65
2021/07/18 01:20:08;;;;;;;10.70;3.50;;;;;;;23.84;59.96;100196.78;5033717;28;20052;-65
2021/07/18 01:22:53;;;;;;;4.03;2.75;;;;;;;23.80;60.07;100200.81;5031976;28;20040;-66
2021/07/18 01:25:39;;;;;;;3.85;2.85;;;;;;;23.77;60.45;100201.66;5032018;28;20532;-65
2021/07/18 01:28:23;;;;;;;4.90;2.75;;;;;;;23.75;60.36;100192.94;5034600;28;20052;-65
2021/07/18 01:31:08;;;;;;;3.72;2.78;;;;;;;23.74;60.10;100200.47;5033032;28;20068;-66
2021/07/18 01:33:54;;;;;;;3.95;2.70;;;;;;;23.76;59.87;100192.53;5036120;28;20052;-66
2021/07/18 01:36:39;;;;;;;7.60;2.85;;;;;;;23.73;59.90;100189.78;5034722;28;20050;-65
2021/07/18 01:39:24;;;;;;;9.63;2.80;;;;;;;23.77;59.87;100191.31;5033107;28;20072;-66
2021/07/18 01:42:09;;;;;;;4.38;2.50;;;;;;;23.78;59.86;100197.66;5035569;28;20064;-65
2021/07/18 01:44:54;;;;;;;4.03;2.47;;;;;;;23.79;59.74;100193.66;5034145;28;20049;-65
2021/07/18 01:47:40;;;;;;;6.28;2.08;;;;;;;23.69;60.10;100187.06;5032707;28;20417;-65
2021/07/18 01:50:25;;;;;;;3.55;2.00;;;;;;;23.76;59.70;100177.84;5034370;28;20052;-65
2021/07/18 01:53:11;;;;;;;5.50;2.20;;;;;;;23.77;59.48;100182.97;5031823;28;20566;-66
2021/07/18 01:55:55;;;;;;;3.17;2.20;;;;;;;23.74;59.65;100181.03;5036135;28;20064;-64
2021/07/18 01:58:41;;;;;;;3.65;2.05;;;;;;;23.71;59.62;100187.44;5034229;28;20048;-64
2021/07/18 02:01:28;;;;;;;4.05;2.03;;;;;;;23.71;59.58;100175.56;5032752;28;20433;-66
2021/07/18 02:04:13;;;;;;;3.30;2.28;;;;;;;23.72;59.74;100183.44;5012734;28;20068;-64
2021/07/18 02:06:59;;;;;;;2.33;1.63;;;;;;;23.71;59.73;100187.44;5016895;28;20049;-66
2021/07/18 02:09:44;;;;;;;5.22;2.63;;;;;;;23.75;59.55;100188.19;5014801;28;20512;-65
2021/07/18 02:12:29;;;;;;;4.70;2.13;;;;;;;23.76;59.28;100198.09;5016613;28;20049;-65
2021/07/18 02:15:21;;;;;;;2.53;2.20;;;;;;;23.79;59.34;100193.66;5032680;28;20048;-65
2021/07/18 02:18:06;;;;;;;3.22;2.20;;;;;;;23.75;59.62;100192.94;5034573;28;20060;-65
2021/07/18 02:20:53;;;;;;;2.63;2.00;;;;;;;23.76;59.65;100194.53;5033023;28;20052;-66
2021/07/18 02:23:37;;;;;;;6.05;2.10;;;;;;;23.75;59.70;100198.50;5035559;28;20045;-66
2021/07/18 02:26:28;;;;;;;4.70;2.22;;;;;;;23.77;59.27;100196.84;5034119;28;20048;-65
2021/07/18 02:29:12;;;;;;;3.08;2.50;;;;;;;23.74;59.27;100200.47;5032663;28;20045;-65
2021/07/18 02:31:57;;;;;;;5.28;2.60;;;;;;;23.78;59.46;100215.09;5036774;28;20056;-66
2021/07/18 02:34:42;;;;;;;2.88;2.20;;;;;;;23.80;59.22;100204.38;5034115;28;20049;-66
2021/07/18 02:37:27;;;;;;;2.38;1.88;;;;;;;23.83;59.42;100205.50;5035920;28;20049;-64
2021/07/18 02:40:14;;;;;;;2.17;1.77;;;;;;;23.85;59.14;100201.13;5040318;28;20052;-65
2021/07/18 02:42:59;;;;;;;2.88;2.33;;;;;;;23.81;59.23;100203.16;5037291;28;20052;-66
2021/07/18 02:45:44;;;;;;;5.13;2.17;;;;;;;23.64;59.81;100204.19;5033344;28;20068;-65
2021/07/18 02:48:28;;;;;;;4.22;2.72;;;;;;;23.66;60.28;100209.31;5034458;28;20056;-65
2021/07/18 02:51:13;;;;;;;4.25;3.03;;;;;;;23.48;61.43;100197.66;5041170;28;20166;-64
2021/07/18 02:53:58;;;;;;;5.47;2.35;;;;;;;23.56;60.54;100197.16;5039559;28;20044;-66
2021/07/18 02:56:43;;;;;;;3.35;1.95;;;;;;;23.65;59.81;100203.00;5041027;28;20048;-65
2021/07/18 02:59:27;;;;;;;5.05;2.90;;;;;;;23.69;60.09;100205.72;5034690;28;20652;-65
2021/07/18 03:02:12;;;;;;;3.20;2.28;;;;;;;23.26;61.95;100205.41;5040019;28;20044;-64
2021/07/18 03:05:11;;;;;;;3.10;2.10;;;;;;;23.42;61.07;100208.38;5036782;28;20076;-66
2021/07/18 03:08:05;;;;;;;4.95;2.03;;;;;;;23.58;60.61;100202.28;5036900;28;20039;-64
2021/07/18 03:10:52;;;;;;;3.80;1.85;;;;;;;23.66;60.41;100209.31;5043043;28;20540;-64
2021/07/18 03:13:38;;;;;;;2.53;1.67;;;;;;;23.69;60.10;100206.50;5045147;28;20284;-65
2021/07/18 03:16:22;;;;;;;3.83;2.03;;;;;;;23.72;60.28;100210.44;5033626;28;20048;-64
2021/07/18 03:19:07;;;;;;;3.03;1.80;;;;;;;23.72;59.93;100211.22;5034347;28;20516;-64
2021/07/18 03:21:52;;;;;;;4.32;2.17;;;;;;;23.74;59.98;100219.13;5038678;28;20048;-64
2021/07/18 03:24:37;;;;;;;6.50;2.40;;;;;;;23.71;59.92;100220.75;5030422;28;20426;-64
2021/07/18 03:27:22;;;;;;;;;;;;;;;23.72;59.78;100216.75;5018036;28;20067;-63
2021/07/18 03:30:09;;;;;;;2.47;1.73;;;;;;;23.67;60.16;100210.91;5038481;28;19913;-63
2021/07/18 03:32:54;;;;;;;4.88;2.25;;;;;;;23.63;60.25;100207.38;5038313;28;20120;-64
2021/07/18 03:35:40;;;;;;;4.90;2.15;;;;;;;23.63;60.06;100212.91;5014292;28;20053;-66
2021/07/18 03:38:25;;;;;;;6.95;2.28;;;;;;;23.59;60.03;100207.41;5027633;28;20052;-66
2021/07/18 03:41:09;;;;;;;6.28;2.05;;;;;;;23.59;60.12;100196.31;5036901;28;20060;-66
2021/07/18 03:43:54;;;;;;;4.68;2.42;;;;;;;23.58;60.03;100193.94;5038756;28;20048;-66
2021/07/18 03:46:40;;;;;;;6.75;1.80;;;;;;;23.59;59.72;100199.09;5039635;28;20057;-66
2021/07/18 03:49:25;;;;;;;5.13;2.67;;;;;;;23.57;59.92;100203.50;5035519;28;20520;-66
2021/07/18 03:52:10;;;;;;;5.35;1.85;;;;;;;23.56;59.72;100205.50;5035387;28;20052;-65
2021/07/18 03:54:55;;;;;;;2.67;1.70;;;;;;;23.54;60.06;100199.56;5035703;28;20048;-65
2021/07/18 03:57:40;;;;;;;2.95;1.60;;;;;;;23.57;59.91;100203.50;5039081;28;20523;-64
2021/07/18 04:00:24;;;;;;;3.35;1.83;;;;;;;23.58;59.86;100211.41;5039314;28;20056;-64
2021/07/18 04:03:09;;;;;;;3.97;1.67;;;;;;;23.56;60.06;100213.03;5032956;28;20052;-65
2021/07/18 04:05:55;;;;;;;3.22;1.75;;;;;;;23.52;59.86;100207.50;5032562;28;20413;-65
2021/07/18 04:08:41;;;;;;;3.53;2.00;;;;;;;23.51;60.15;100203.16;5034355;28;20052;-64
2021/07/18 04:11:26;;;;;;;2.45;1.27;;;;;;;23.53;59.94;100208.28;5033117;28;20053;-64
2021/07/18 04:14:11;;;;;;;2.35;1.75;;;;;;;23.53;60.21;100209.06;5032673;28;20049;-65
2021/07/18 04:16:56;;;;;;;4.72;1.77;;;;;;;23.53;59.99;100220.19;5039492;28;20052;-65
2021/07/18 04:19:41;;;;;;;3.60;1.88;;;;;;;23.53;60.15;100224.94;5032606;28;20045;-64
2021/07/18 04:22:25;;;;;;;88.75;16.60;;;;;;;23.52;60.16;100218.59;5037470;28;20048;-64
2021/07/18 04:25:12;;;;;;;32.80;7.22;;;;;;;23.55;60.19;100222.56;5034346;28;20045;-64
2021/07/18 04:27:56;;;;;;;28.35;6.35;;;;;;;23.57;60.17;100211.84;5038863;28;20052;-65
2021/07/18 04:30:42;;;;;;;10.60;2.65;;;;;;;23.57;59.88;100209.81;5038501;28;20056;-65
2021/07/18 04:33:26;;;;;;;3.58;1.70;;;;;;;23.56;59.68;100219.38;5025925;28;20605;-64
2021/07/18 04:36:11;;;;;;;2.58;1.80;;;;;;;23.49;59.65;100218.66;5038978;28;20069;-63
2021/07/18 04:38:56;;;;;;;3.17;1.73;;;;;;;23.52;59.71;100226.94;5039164;28;20064;-64
2021/07/18 04:41:41;;;;;;;6.75;1.85;;;;;;;23.57;59.72;100234.03;5035344;28;20048;-65
2021/07/18 04:44:26;;;;;;;2.00;1.40;;;;;;;23.62;59.62;100233.56;5036289;28;20410;-64
2021/07/18 04:47:11;;;;;;;1.60;1.35;;;;;;;23.62;59.51;100226.00;5021494;28;20060;-64
2021/07/18 04:49:56;;;;;;;2.72;1.40;;;;;;;23.64;59.15;100220.06;5017407;28;20056;-64
2021/07/18 04:52:41;;;;;;;3.70;1.50;;;;;;;23.62;59.52;100217.69;5039044;28;20040;-64
2021/07/18 04:55:26;;;;;;;2.00;1.52;;;;;;;23.63;59.48;100219.25;5033328;28;20048;-64
2021/07/18 04:58:11;;;;;;;2.13;1.40;;;;;;;23.64;59.35;100226.41;5029941;28;20068;-63
2021/07/18 05:00:56;;;;;;;3.35;1.48;;;;;;;23.63;59.46;100230.38;5046092;28;20057;-63
2021/07/18 05:03:41;;;;;;;2.97;1.40;;;;;;;23.61;59.80;100238.34;5021508;28;20032;-64
2021/07/18 05:06:26;;;;;;;2.28;1.25;;;;;;;23.60;59.89;100230.41;5035552;28;20045;-64
2021/07/18 05:09:10;;;;;;;3.00;1.50;;;;;;;23.59;60.08;100235.19;5034141;28;20057;-64
2021/07/18 05:11:55;;;;;;;3.45;1.40;;;;;;;23.58;60.08;100233.59;5025468;28;20072;-63
2021/07/18 05:14:42;;;;;;;3.60;1.80;;;;;;;23.59;59.80;100228.84;5015217;28;20049;-64
2021/07/18 05:17:27;;;;;;;3.05;1.27;;;;;;;23.60;59.58;100225.66;5018974;28;20049;-64
2021/07/18 05:20:13;;;;;;;1.75;1.23;;;;;;;23.62;59.61;100223.22;5012527;28;20065;-64
2021/07/18 05:22:58;;;;;;;2.00;1.08;;;;;;;23.62;59.21;100217.69;5036714;28;20547;-64
2021/07/18 05:25:43;;;;;;;3.72;1.20;;;;;;;23.64;59.39;100218.06;5032156;28;20048;-64
2021/07/18 05:28:28;;;;;;;12.52;1.35;;;;;;;23.65;59.37;100218.84;5032301;28;20052;-63
2021/07/18 05:31:13;;;;;;;5.00;2.33;;;;;;;23.67;58.97;100222.78;5037658;28;20393;-65
2021/07/18 05:33:58;;;;;;;4.97;1.67;;;;;;;23.72;58.61;100216.75;5030260;28;20065;-64
2021/07/18 05:36:43;;;;;;;1.98;1.25;;;;;;;23.77;58.44;100219.06;5032105;28;20048;-65
2021/07/18 05:39:28;;;;;;;2.40;1.17;;;;;;;23.79;58.22;100233.34;5038266;28;20052;-65
2021/07/18 05:42:13;;;;;;;3.60;1.02;;;;;;;23.82;57.55;100224.16;5034184;28;20057;-65
2021/07/18 05:44:58;;;;;;;1.42;0.70;;;;;;;23.85;57.68;100217.78;5031658;28;20060;-66
2021/07/18 05:47:43;;;;;;;3.33;0.90;;;;;;;23.82;57.39;100226.94;5038010;28;20405;-64
2021/07/18 05:50:28;;;;;;;2.25;1.15;;;;;;;23.89;56.85;100237.19;5034257;28;20056;-64
2021/07/18 05:53:13;;;;;;;1.17;0.85;;;;;;;23.90;57.03;100233.19;5032336;28;20405;-65
2021/07/18 05:55:57;;;;;;;1.58;0.85;;;;;;;23.87;56.53;100228.50;5035283;28;20049;-64
2021/07/18 05:58:43;;;;;;;2.97;1.20;;;;;;;23.84;56.81;100230.09;5034660;28;20060;-64
2021/07/18 06:01:28;;;;;;;3.67;1.00;;;;;;;23.88;56.03;100236.38;5032834;28;20048;-63
2021/07/18 06:04:13;;;;;;;4.97;1.00;;;;;;;23.94;56.47;100233.16;5035905;28;20064;-63
2021/07/18 06:06:58;;;;;;;3.13;1.27;;;;;;;23.97;56.24;100235.09;5034439;28;20053;-64
2021/07/18 06:09:43;;;;;;;16.17;1.20;;;;;;;23.98;56.19;100222.75;5032930;28;20053;-64
2021/07/18 06:12:28;;;;;;;1.95;0.88;;;;;;;24.01;56.14;100235.84;5040269;28;20044;-64
2021/07/18 06:15:13;;;;;;;2.75;1.20;;;;;;;23.99;56.07;100233.47;5035811;28;20048;-65
2021/07/18 06:17:58;;;;;;;1.85;1.05;;;;;;;23.95;56.55;100243.84;5036717;28;20397;-63
2021/07/18 06:20:43;;;;;;;1.73;1.00;;;;;;;23.97;56.83;100247.00;5035131;28;20072;-65
2021/07/18 06:23:28;;;;;;;2.17;1.13;;;;;;;23.99;56.58;100246.56;5038432;28;20053;-64
2021/07/18 06:26:14;;;;;;;2.65;0.98;;;;;;;23.97;56.31;100254.56;5035531;28;20053;-63
2021/07/18 06:29:00;;;;;;;7.28;0.90;;;;;;;23.99;56.09;100258.47;5035062;28;20416;-64
2021/07/18 06:31:45;;;;;;;2.25;1.10;;;;;;;24.03;56.39;100263.97;5024396;28;20060;-64
2021/07/18 06:34:31;;;;;;;4.95;1.42;;;;;;;23.99;56.64;100271.56;5028532;28;20528;-65
2021/07/18 06:37:16;;;;;;;2.75;0.98;;;;;;;24.01;56.66;100269.19;5033419;28;20056;-65
2021/07/18 06:40:04;;;;;;;1.80;1.00;;;;;;;24.04;56.58;100273.88;5037369;28;20048;-65
2021/07/18 06:42:48;;;;;;;5.32;1.13;;;;;;;24.00;56.97;100271.16;5036718;28;20429;-64
2021/07/18 06:45:35;;;;;;;2.08;1.10;;;;;;;24.05;56.69;100267.13;5034401;28;20053;-64
2021/07/18 06:48:20;;;;;;;12.05;2.15;;;;;;;24.02;57.12;100262.41;5037624;28;20048;-63
2021/07/18 06:51:05;;;;;;;5.80;1.25;;;;;;;24.02;57.50;100265.97;5029410;28;20061;-63
2021/07/18 06:53:50;;;;;;;7.63;1.40;;;;;;;24.02;57.82;100259.63;5024416;28;20048;-63
2021/07/18 06:56:35;;;;;;;4.82;0.93;;;;;;;24.00;58.01;100260.06;5028237;28;20052;-63
2021/07/18 06:59:20;;;;;;;3.50;0.88;;;;;;;24.08;58.39;100269.84;5035639;28;20045;-64
2021/07/18 07:02:06;;;;;;;7.63;1.40;;;;;;;24.13;58.19;100274.16;5035287;28;20052;-64
2021/07/18 07:04:50;;;;;;;7.80;1.00;;;;;;;24.09;58.76;100274.22;5040129;28;20445;-63
2021/07/18 07:07:35;;;;;;;3.13;1.00;;;;;;;24.06;59.22;100271.47;5037855;28;20412;-63
2021/07/18 07:10:20;;;;;;;5.63;1.10;;;;;;;24.07;59.51;100270.28;5040295;28;20052;-63
2021/07/18 07:13:05;;;;;;;11.23;1.60;;;;;;;24.04;59.75;100266.34;5039375;28;20072;-63
2021/07/18 07:15:50;;;;;;;9.15;1.20;;;;;;;23.99;59.89;100272.34;5034071;28;20703;-64
2021/07/18 07:18:35;;;;;;;3.15;1.23;;;;;;;24.01;59.96;100267.19;5035313;28;20393;-64
2021/07/18 07:21:20;;;;;;;2.38;0.90;;;;;;;24.01;60.01;100272.75;5038541;28;20048;-63
2021/07/18 07:24:05;;;;;;;10.05;1.25;;;;;;;24.09;59.74;100267.84;5035889;28;20045;-63
2021/07/18 07:26:50;;;;;;;4.60;1.30;;;;;;;24.13;59.50;100274.94;5034316;28;20045;-64
2021/07/18 07:29:35;;;;;;;3.00;1.10;;;;;;;24.20;59.41;100280.44;5037575;28;20052;-65
2021/07/18 07:32:20;;;;;;;4.85;1.10;;;;;;;24.24;59.28;100286.72;5033431;28;20500;-64
2021/07/18 07:35:07;;;;;;;4.38;1.00;;;;;;;24.34;58.42;100285.00;5024130;28;20264;-63
2021/07/18 07:37:51;;;;;;;3.65;0.98;;;;;;;24.40;58.10;100280.56;5024357;28;20052;-64
2021/07/18 07:40:36;;;;;;;4.93;1.00;;;;;;;24.38;57.55;100290.53;5040483;28;20052;-64
2021/07/18 07:43:22;;;;;;;3.00;1.42;;;;;;;24.30;58.13;100298.16;5026627;28;20052;-64
2021/07/18 07:46:07;;;;;;;7.55;3.53;;;;;;;24.13;59.18;100307.50;5039083;28;20068;-64
2021/07/18 07:48:53;;;;;;;14.77;8.45;;;;;;;24.06;59.69;100307.59;5017419;28;20056;-63
2021/07/18 07:51:37;;;;;;;18.80;10.38;;;;;;;23.97;60.62;100301.78;5015506;28;20053;-63
2021/07/18 07:54:22;;;;;;;23.20;13.85;;;;;;;23.97;60.36;100299.00;5015725;28;20049;-63
2021/07/18 07:57:08;;;;;;;16.77;8.98;;;;;;;23.97;60.12;100297.00;5036618;28;20402;-64
2021/07/18 07:59:53;;;;;;;11.55;6.38;;;;;;;24.14;59.23;100286.84;5032997;28;20044;-64
2021/07/18 08:02:38;;;;;;;14.43;7.15;;;;;;;24.21;58.95;100275.66;5033403;28;20052;-63
2021/07/18 08:05:24;;;;;;;19.42;9.13;;;;;;;24.22;58.92;100274.47;5032945;28;20057;-64
2021/07/18 08:08:09;;;;;;;17.77;7.93;;;;;;;24.27;58.74;100274.00;5022373;28;20052;-64
2021/07/18 08:10:55;;;;;;;18.92;8.07;;;;;;;24.34;58.29;100262.75;5035531;28;20052;-64
2021/07/18 08:13:40;;;;;;;11.48;5.78;;;;;;;24.38;57.65;100263.50;5020771;28;20528;-64
2021/07/18 08:16:25;;;;;;;2.97;1.85;;;;;;;24.57;56.38;100267.59;5033050;28;20413;-64
2021/07/18 08:19:10;;;;;;;5.82;2.03;;;;;;;24.73;56.16;100261.38;5032071;28;20048;-64
2021/07/18 08:21:55;;;;;;;3.42;1.77;;;;;;;24.83;55.79;100269.56;5029677;28;20052;-64
2021/07/18 08:24:40;;;;;;;11.15;3.13;;;;;;;24.88;55.32;100271.09;5033432;28;20040;-63
2021/07/18 08:27:26;;;;;;;12.10;2.75;;;;;;;24.87;55.23;100275.88;5030647;28;20437;-64
2021/07/18 08:30:12;;;;;;;5.55;2.80;;;;;;;24.81;55.46;100277.53;5036675;28;20052;-64
2021/07/18 08:32:56;;;;;;;4.38;1.88;;;;;;;24.63;55.90;100285.38;5035288;28;20048;-64
2021/07/18 08:35:41;;;;;;;7.93;4.57;;;;;;;24.47;56.52;100296.34;5031100;28;20052;-64
2021/07/18 08:38:28;;;;;;;21.83;11.30;;;;;;;24.42;56.93;100302.38;5036724;28;20394;-64
2021/07/18 08:41:12;;;;;;;23.70;11.27;;;;;;;24.31;57.66;100291.41;5035393;28;20037;-63
2021/07/18 08:43:58;;;;;;;16.88;8.48;;;;;;;24.27;57.80;100285.13;5032784;28;20567;-63
2021/07/18 08:46:43;;;;;;;24.02;9.65;;;;;;;24.45;57.10;100287.63;5036348;28;20041;-63
2021/07/18 08:49:28;;;;;;;14.05;6.93;;;;;;;24.56;56.69;100286.28;5035533;28;20052;-63
2021/07/18 08:52:13;;;;;;;12.10;6.30;;;;;;;24.66;56.09;100296.44;5034000;28;20064;-63
2021/07/18 08:54:58;;;;;;;8.68;3.78;;;;;;;24.87;55.98;100291.75;5033301;28;20072;-64
2021/07/18 08:57:43;;;;;;;7.40;4.10;;;;;;;24.92;55.08;100291.28;5034587;28;20512;-63
2021/07/18 09:00:29;;;;;;;5.32;3.45;;;;;;;24.87;55.23;100291.75;5033906;28;20056;-62
2021/07/18 09:03:18;;;;;;;7.40;3.55;;;;;;;24.92;54.89;100292.06;5031960;28;20057;-63
2021/07/18 09:06:10;;;;;;;4.55;1.73;;;;;;;25.14;54.46;100303.63;5034562;28;20397;-64
2021/07/18 09:08:56;;;;;;;2.85;1.92;;;;;;;25.18;54.26;100293.22;5033372;28;20488;-66
2021/07/18 09:11:42;;;;;;;3.97;1.77;;;;;;;25.23;54.01;100291.94;5037114;28;20068;-65
2021/07/18 09:14:48;;;;;;;1.75;0.90;;;;;;;25.29;53.76;100281.91;5034281;28;20401;-66
2021/07/18 09:17:34;;;;;;;2.13;1.40;;;;;;;25.41;52.93;100279.25;5031515;28;20048;-66
2021/07/18 09:20:20;;;;;;;3.75;1.50;;;;;;;25.65;52.53;100270.91;5036490;28;20068;-66
2021/07/18 09:23:15;;;;;;;5.32;1.30;;;;;;;25.67;52.13;100268.44;5034286;28;20401;-66
2021/07/18 09:26:35;;;;;;;2.60;1.02;;;;;;;25.55;52.06;100273.44;5030613;28;20413;-65
2021/07/18 09:29:25;;;;;;;2.70;1.23;;;;;;;25.33;52.97;100268.69;5009998;28;20460;-65
2021/07/18 09:32:22;;;;;;;1.35;1.10;;;;;;;25.43;52.91;100271.28;5031863;28;20401;-65
2021/07/18 09:35:10;;;;;;;1.40;0.90;;;;;;;25.51;52.51;100272.69;5031340;28;20056;-65
2021/07/18 09:37:54;;;;;;;1.98;1.20;;;;;;;25.53;52.40;100287.00;5032794;28;20045;-65
2021/07/18 09:40:41;;;;;;;2.53;1.13;;;;;;;25.49;52.25;100283.50;5031239;28;20056;-65
2021/07/18 09:43:28;;;;;;;1.48;0.90;;;;;;;25.56;51.74;100279.78;5034552;28;20410;-65
2021/07/18 09:46:13;;;;;;;2.28;1.30;;;;;;;25.71;51.15;100274.72;5036616;28;20052;-66
2021/07/18 09:49:03;;;;;;;1.45;0.90;;;;;;;26.38;50.44;100276.88;5035828;28;20056;-65
2021/07/18 09:51:48;;;;;;;4.20;1.10;;;;;;;26.75;50.03;100281.19;5037562;28;20048;-65
2021/07/18 09:54:33;;;;;;;1.42;0.93;;;;;;;26.63;50.62;100283.88;5037406;28;20068;-65
2021/07/18 09:57:32;;;;;;;2.42;1.33;;;;;;;26.91;48.68;100272.06;5021204;28;20044;-64
2021/07/18 10:00:19;;;;;;;3.20;0.98;;;;;;;26.91;48.95;100274.84;5019008;28;20049;-65
2021/07/18 10:03:10;;;;;;;9.80;1.73;;;;;;;26.74;48.95;100270.44;5025691;28;20056;-65
2021/07/18 10:06:07;;;;;;;3.28;1.30;;;;;;;26.58;49.73;100271.22;5037454;28;20064;-65
2021/07/18 10:09:04;;;;;;;3.05;1.27;;;;;;;26.50;49.93;100275.41;5039600;28;20075;-64
2021/07/18 10:11:48;;;;;;;2.15;1.20;;;;;;;26.45;50.42;100277.94;5034517;28;20045;-66
2021/07/18 10:14:34;;;;;;;10.13;1.40;;;;;;;26.48;49.87;100277.06;5036988;28;20064;-66
2021/07/18 10:17:18;;;;;;;1.20;1.00;;;;;;;26.69;51.05;100265.38;5036672;28;20068;-66
2021/07/18 10:20:04;;;;;;;6.75;1.20;;;;;;;26.84;49.59;100266.59;5034751;28;20504;-66
2021/07/18 10:22:52;;;;;;;1.92;1.30;;;;;;;27.03;49.88;100276.13;5019990;28;20051;-66
2021/07/18 10:25:38;;;;;;;4.13;1.67;;;;;;;26.93;50.25;100272.38;5015880;28;20045;-66
2021/07/18 10:28:25;;;;;;;4.15;1.52;;;;;;;27.02;49.69;100271.78;5030097;28;20532;-65
2021/07/18 10:31:18;;;;;;;2.55;1.35;;;;;;;27.06;49.16;100273.25;5039270;28;20080;-66
2021/07/18 10:34:06;;;;;;;2.25;1.35;;;;;;;26.96;49.33;100265.94;5036960;28;20057;-66
2021/07/18 10:36:51;;;;;;;2.95;2.00;;;;;;;26.85;48.92;100261.81;5034592;28;20052;-64
2021/07/18 10:39:40;;;;;;;5.57;1.52;;;;;;;26.83;49.42;100270.63;5038327;28;20044;-64
2021/07/18 10:42:34;;;;;;;4.72;1.48;;;;;;;26.59;49.37;100264.44;5036923;28;20055;-65
2021/07/18 10:45:24;;;;;;;2.38;1.65;;;;;;;26.46;50.07;100262.78;5036911;28;20040;-66
2021/07/18 10:48:10;;;;;;;3.80;1.52;;;;;;;26.26;50.75;100265.63;5036237;28;20045;-66
2021/07/18 10:50:58;;;;;;;3.90;1.77;;;;;;;26.00;51.02;100253.44;5034592;28;20064;-65
2021/07/18 10:53:45;;;;;;;2.78;1.42;;;;;;;25.74;51.54;100259.97;5038834;28;20048;-65
2021/07/18 10:56:46;;;;;;;3.83;1.85;;;;;;;25.98;52.08;100262.22;5034781;28;20241;-65
2021/07/18 10:59:37;;;;;;;1.73;1.20;;;;;;;25.91;51.79;100265.13;5031945;28;20053;-64
2021/07/18 11:02:33;;;;;;;5.30;1.35;;;;;;;25.64;52.96;100264.53;5036581;28;20048;-65
2021/07/18 11:05:18;;;;;;;2.20;1.00;;;;;;;25.42;52.26;100258.56;5034674;28;20040;-64
2021/07/18 11:08:04;;;;;;;3.08;1.60;;;;;;;25.63;52.93;100256.59;5032012;28;20044;-66
2021/07/18 11:10:53;;;;;;;2.13;1.08;;;;;;;25.81;52.40;100257.00;5033189;28;20044;-64
2021/07/18 11:13:38;;;;;;;2.55;1.50;;;;;;;25.86;51.66;100256.50;5033491;28;20069;-66
2021/07/18 11:16:46;;;;;;;2.85;1.35;;;;;;;25.89;51.36;100261.22;5035803;28;20067;-66
2021/07/18 11:19:37;;;;;;;2.45;1.35;;;;;;;26.03;49.38;100252.56;5034754;28;20397;-64
2021/07/18 11:23:01;;;;;;;2.83;1.38;;;;;;;25.88;50.54;100246.50;5036505;28;20048;-66
2021/07/18 11:25:52;;;;;;;4.18;1.52;;;;;;;26.27;47.73;100256.03;5027657;28;20405;-65
2021/07/18 11:31:37;;;;;;;1.50;1.08;;;;;;;25.96;48.98;100235.97;5032582;28;20045;-66
2021/07/18 11:34:23;;;;;;;2.75;1.30;;;;;;;25.75;49.97;100225.31;5026846;28;20048;-65
2021/07/18 11:37:09;;;;;;;3.45;1.17;;;;;;;25.67;50.28;100218.31;5024663;28;20036;-66
2021/07/18 11:40:05;;;;;;;1.52;0.90;;;;;;;25.45;50.90;100217.94;5032915;28;20048;-65
2021/07/18 11:42:50;;;;;;;1.52;1.25;;;;;;;25.36;51.17;100201.81;5031226;28;20040;-64
2021/07/18 11:45:35;;;;;;;2.95;1.10;;;;;;;25.48;50.72;100205.94;5033759;28;20405;-66
2021/07/18 11:48:23;;;;;;;1.42;1.10;;;;;;;25.56;50.44;100210.19;5036527;28;20044;-66
2021/07/18 11:51:17;;;;;;;4.03;1.08;;;;;;;25.69;49.63;100207.53;5034234;28;20044;-66
2021/07/18 11:54:02;;;;;;;4.22;1.05;;;;;;;25.85;49.23;100215.94;5027303;28;20040;-64
2021/07/18 11:56:48;;;;;;;2.20;1.15;;;;;;;25.86;48.95;100221.06;5036161;28;20052;-64
2021/07/18 11:59:34;;;;;;;5.63;1.10;;;;;;;25.64;49.00;100202.47;5026549;28;20053;-65
2021/07/18 12:02:21;;;;;;;2.15;1.45;;;;;;;25.66;49.70;100208.38;5020243;28;20053;-64
2021/07/18 12:05:07;;;;;;;2.30;1.27;;;;;;;26.14;44.92;100211.31;5031176;28;20087;-65
2021/07/18 12:08:04;;;;;;;1.70;1.02;;;;;;;26.30;46.52;100222.50;5027049;28;20064;-65
2021/07/18 12:11:24;;;;;;;1.88;1.17;;;;;;;26.67;44.37;100217.59;5036716;28;20068;-64
2021/07/18 12:14:11;;;;;;;1.17;1.02;;;;;;;26.81;44.69;100206.88;5032286;28;20048;-64
2021/07/18 12:16:56;;;;;;;2.80;1.00;;;;;;;26.51;44.93;100204.47;5031049;28;20056;-66
2021/07/18 12:19:42;;;;;;;4.47;1.10;;;;;;;26.29;46.13;100197.84;5035205;28;20528;-66
2021/07/18 12:22:27;;;;;;;3.05;1.00;;;;;;;26.41;45.76;100202.72;5032344;28;20048;-67
2021/07/18 12:25:18;;;;;;;80.00;12.07;;;;;;;26.26;47.41;100205.06;5030361;28;20048;-67
2021/07/18 12:28:03;;;;;;;60.05;12.15;;;;;;;26.20;49.00;100197.63;5033618;28;20037;-65
2021/07/18 12:30:48;;;;;;;41.83;7.15;;;;;;;26.36;49.00;100204.00;5033514;28;20509;-64
2021/07/18 12:33:35;;;;;;;44.75;9.57;;;;;;;26.07;48.38;100203.09;5028248;28;20052;-63
2021/07/18 12:36:20;;;;;;;39.00;5.80;;;;;;;26.28;48.16;100196.25;5035105;28;20520;-63
2021/07/18 12:39:16;;;;;;;14.90;3.15;;;;;;;26.23;48.57;100200.34;5037650;28;20040;-64
2021/07/18 12:42:04;;;;;;;9.98;2.25;;;;;;;26.13;48.97;100197.78;5036274;28;20056;-63
2021/07/18 12:44:53;;;;;;;8.35;1.75;;;;;;;26.33;48.27;100188.16;5034316;28;20052;-64
2021/07/18 12:47:39;;;;;;;2.47;1.20;;;;;;;26.72;46.81;100183.59;5028715;28;20048;-64
2021/07/18 12:50:29;;;;;;;4.13;1.48;;;;;;;26.32;48.23;100174.66;5033067;28;20048;-64
2021/07/18 12:53:21;;;;;;;3.83;1.40;;;;;;;26.25;48.71;100181.22;5033368;28;20515;-64
2021/07/18 12:56:09;;;;;;;2.92;1.20;;;;;;;26.16;48.96;100175.41;5031691;28;20060;-65